createdAt,value
2018-04-01T00:00:50.273Z,99670.69
2018-04-01T00:03:18.006Z,99674.82
2018-04-01T00:05:45.742Z,99675.44
2018-04-01T00:08:13.516Z,99672.61
2018-04-01T00:10:41.240Z,99677.38
2018-04-01T00:13:09.029Z,99661.84
2018-04-01T00:15:36.744Z,99679.29
2018-04-01T00:18:04.480Z,99684.36
2018-04-01T00:20:32.226Z,99683.16
2018-04-01T00:22:59.981Z,99679.85
2018-04-01T00:25:27.747Z,99687.20
2018-04-01T00:27:55.533Z,99686.39
2018-04-01T00:30:23.270Z,99691.12
2018-04-01T00:32:51.020Z,99681.32
2018-04-01T00:35:19.152Z,99685.55
2018-04-01T00:37:46.923Z,99685.64
2018-04-01T00:40:15.029Z,99695.15
2018-04-01T00:42:42.920Z,99697.61
2018-04-01T00:45:10.620Z,99683.25
2018-04-01T00:47:38.399Z,99700.37
2018-04-01T00:50:06.147Z,99704.32
2018-04-01T00:52:34.097Z,99701.77
2018-04-01T00:55:05.112Z,99707.94
2018-04-01T00:57:32.852Z,99712.02
2018-04-01T01:00:00.619Z,99707.52
2018-04-01T01:02:33.967Z,99712.31
2018-04-01T01:05:04.768Z,99708.74
2018-04-01T01:07:32.490Z,99699.98
2018-04-01T01:10:00.311Z,99704.62
2018-04-01T01:12:31.101Z,99699.27
2018-04-01T01:14:58.852Z,99695.98
2018-04-01T01:17:26.619Z,99687.69
2018-04-01T01:19:54.380Z,99690.36
2018-04-01T01:22:22.126Z,99695.89
2018-04-01T01:24:50.116Z,99699.95
2018-04-01T01:27:17.866Z,99708.81
2018-04-01T01:29:45.741Z,99706.44
2018-04-01T01:32:13.501Z,99698.97
2018-04-01T01:34:41.230Z,99707.93
2018-04-01T01:37:09.128Z,99713.89
2018-04-01T01:39:36.893Z,99720.13
2018-04-01T01:42:05.010Z,99724.63
2018-04-01T01:44:32.749Z,99727.39
2018-04-01T01:47:00.488Z,99733.09
2018-04-01T01:49:29.003Z,99731.84
2018-04-01T01:51:57.062Z,99731.05
2018-04-01T01:54:25.075Z,99730.25
2018-04-01T01:56:52.823Z,99731.61
2018-04-01T01:59:20.765Z,99731.98
2018-04-01T02:01:49.153Z,99731.89
2018-04-01T02:04:17.147Z,99728.78
2018-04-01T02:06:44.906Z,99731.52
2018-04-01T02:09:12.633Z,99733.23
2018-04-01T02:11:40.387Z,99731.20
2018-04-01T02:14:08.180Z,99738.09
2018-04-01T02:16:35.913Z,99733.99
2018-04-01T02:19:04.045Z,99731.38
2018-04-01T02:21:31.792Z,99727.67
2018-04-01T02:23:59.525Z,99734.35
2018-04-01T02:26:27.272Z,99733.05
2018-04-01T02:28:54.985Z,99734.05
2018-04-01T02:31:22.990Z,99727.42
2018-04-01T02:33:50.675Z,99733.17
2018-04-01T02:36:18.446Z,99739.16
2018-04-01T02:38:46.208Z,99743.90
2018-04-01T02:41:13.929Z,99731.20
2018-04-01T02:43:41.682Z,99733.17
2018-04-01T02:46:09.408Z,99731.43
2018-04-01T02:48:37.155Z,99738.77
2018-04-01T02:51:04.879Z,99736.13
2018-04-01T02:53:32.634Z,99740.59
2018-04-01T02:56:00.361Z,99737.73
2018-04-01T02:58:28.108Z,99738.09
2018-04-01T03:00:55.860Z,99741.95
2018-04-01T03:03:23.625Z,99740.59
2018-04-01T03:05:51.565Z,99731.30
2018-04-01T03:08:19.296Z,99735.94
2018-04-01T03:10:47.028Z,99736.49
2018-04-01T03:13:14.754Z,99738.02
2018-04-01T03:15:42.515Z,99734.25
2018-04-01T03:18:10.271Z,99736.48
2018-04-01T03:20:38.026Z,99733.48
2018-04-01T03:23:05.782Z,99735.73
2018-04-01T03:25:33.970Z,99739.04
2018-04-01T03:28:01.698Z,99745.16
2018-04-01T03:30:29.423Z,99740.66
2018-04-01T03:32:57.174Z,99740.87
2018-04-01T03:35:24.911Z,99743.77
2018-04-01T03:37:52.848Z,99741.97
2018-04-01T03:40:20.574Z,99728.36
2018-04-01T03:42:48.312Z,99740.43
2018-04-01T03:45:16.049Z,99741.76
2018-04-01T03:47:43.802Z,99741.89
2018-04-01T03:50:11.525Z,99750.98
2018-04-01T03:52:39.290Z,99743.55
2018-04-01T03:55:06.988Z,99752.70
2018-04-01T03:57:34.732Z,99745.50
2018-04-01T04:00:05.065Z,99748.81
2018-04-01T04:02:32.801Z,99748.64
2018-04-01T04:05:00.572Z,99749.27
2018-04-01T04:07:33.833Z,99747.86
2018-04-01T04:10:05.214Z,99758.05
2018-04-01T04:12:32.935Z,99754.09
2018-04-01T04:17:33.529Z,99746.84
2018-04-01T04:20:04.849Z,99768.31
2018-04-01T04:22:32.565Z,99771.23
2018-04-01T04:25:00.328Z,99771.46
2018-04-01T04:27:33.473Z,99772.25
2018-04-01T04:30:06.008Z,99773.00
2018-04-01T04:32:33.705Z,99775.22
2018-04-01T04:35:04.561Z,99780.10
2018-04-01T04:37:32.291Z,99776.25
2018-04-01T04:40:00.023Z,99768.28
2018-04-01T04:42:30.985Z,99778.77
2018-04-01T04:44:58.907Z,99781.00
2018-04-01T04:47:26.643Z,99776.98
2018-04-01T04:49:54.401Z,99780.13
2018-04-01T04:52:22.221Z,99787.80
2018-04-01T04:54:49.966Z,99786.23
2018-04-01T04:57:17.707Z,99793.00
2018-04-01T04:59:45.744Z,99790.13
2018-04-01T05:02:13.517Z,99782.38
2018-04-01T05:04:41.236Z,99797.35
2018-04-01T05:07:08.961Z,99800.44
2018-04-01T05:09:36.717Z,99802.53
2018-04-01T05:12:04.475Z,99806.62
2018-04-01T05:14:32.561Z,99806.00
2018-04-01T05:17:00.584Z,99794.63
2018-04-01T05:19:28.320Z,99812.79
2018-04-01T05:21:56.073Z,99811.34
2018-04-01T05:24:23.809Z,99811.86
2018-04-01T05:26:55.662Z,99811.58
2018-04-01T05:29:23.639Z,99818.59
2018-04-01T05:31:51.404Z,99824.52
2018-04-01T05:34:19.179Z,99821.74
2018-04-01T05:36:46.901Z,99825.31
2018-04-01T05:39:14.650Z,99827.17
2018-04-01T05:41:42.375Z,99834.77
2018-04-01T05:44:10.163Z,99832.68
2018-04-01T05:46:37.895Z,99837.52
2018-04-01T05:49:05.631Z,99839.44
2018-04-01T05:51:33.621Z,99845.72
2018-04-01T05:54:01.390Z,99838.52
2018-04-01T05:56:29.109Z,99846.18
2018-04-01T05:58:56.874Z,99847.83
2018-04-01T06:01:24.634Z,99833.95
2018-04-01T06:03:52.394Z,99848.36
2018-04-01T06:06:20.152Z,99846.12
2018-04-01T06:08:47.940Z,99847.22
2018-04-01T06:11:15.676Z,99855.59
2018-04-01T06:13:43.596Z,99851.73
2018-04-01T06:16:11.348Z,99859.03
2018-04-01T06:18:39.097Z,99855.80
2018-04-01T06:21:06.820Z,99851.45
2018-04-01T06:23:34.745Z,99856.14
2018-04-01T06:26:02.504Z,99856.64
2018-04-01T06:28:30.240Z,99860.38
2018-04-01T06:30:59.500Z,99857.52
2018-04-01T06:33:27.387Z,99861.63
2018-04-01T06:35:55.119Z,99866.17
2018-04-01T06:38:22.852Z,99871.26
2018-04-01T06:40:50.598Z,99870.59
2018-04-01T06:43:18.330Z,99873.20
2018-04-01T06:45:46.076Z,99883.72
2018-04-01T06:48:13.817Z,99882.54
2018-04-01T06:50:41.737Z,99881.98
2018-04-01T06:53:09.825Z,99880.22
2018-04-01T06:55:37.566Z,99885.18
2018-04-01T06:58:05.300Z,99892.13
2018-04-01T07:00:33.083Z,99897.01
2018-04-01T07:03:00.852Z,99902.71
2018-04-01T07:05:28.601Z,99903.16
2018-04-01T07:07:56.339Z,99914.34
2018-04-01T07:10:24.485Z,99916.03
2018-04-01T07:12:52.843Z,99920.89
2018-04-01T07:15:20.736Z,99924.08
2018-04-01T07:17:48.490Z,99914.42
2018-04-01T07:20:16.226Z,99926.16
2018-04-01T07:22:43.999Z,99926.67
2018-04-01T07:25:11.729Z,99931.73
2018-04-01T07:27:39.487Z,99933.05
2018-04-01T07:30:07.371Z,99945.25
2018-04-01T07:32:35.107Z,99948.53
2018-04-01T07:35:05.841Z,99959.59
2018-04-01T07:37:33.584Z,99962.41
2018-04-01T07:40:06.153Z,99960.30
2018-04-01T07:42:34.385Z,99974.23
2018-04-01T07:45:05.161Z,99982.12
2018-04-01T07:47:32.920Z,99987.25
2018-04-01T07:50:00.668Z,99990.91
2018-04-01T07:52:33.734Z,99994.03
2018-04-01T07:55:05.666Z,100008.23
2018-04-01T07:57:34.049Z,100009.13
2018-04-01T08:00:05.206Z,100004.72
2018-04-01T08:02:32.946Z,100013.77
2018-04-01T08:05:00.687Z,100019.35
2018-04-01T08:07:31.908Z,100021.40
2018-04-01T08:09:59.649Z,100021.71
2018-04-01T08:12:27.406Z,100030.77
2018-04-01T08:14:55.194Z,100028.91
2018-04-01T08:17:22.931Z,100030.31
2018-04-01T08:19:50.812Z,100031.98
2018-04-01T08:22:18.570Z,100038.79
2018-04-01T08:24:46.417Z,100033.39
2018-04-01T08:27:14.172Z,100036.05
2018-04-01T08:29:41.954Z,100037.00
2018-04-01T08:32:09.712Z,100042.46
2018-04-01T08:34:37.451Z,100036.27
2018-04-01T08:37:05.220Z,100041.75
2018-04-01T08:39:32.955Z,100043.77
2018-04-01T08:42:00.724Z,100046.90
2018-04-01T08:44:28.533Z,100050.43
2018-04-01T08:46:56.302Z,100043.57
2018-04-01T08:49:24.040Z,100050.70
2018-04-01T08:51:51.809Z,100051.63
2018-04-01T08:54:19.710Z,100059.02
2018-04-01T08:56:47.465Z,100063.02
2018-04-01T08:59:15.434Z,100064.19
2018-04-01T09:01:43.148Z,100063.44
2018-04-01T09:04:10.914Z,100062.90
2018-04-01T09:06:38.945Z,100065.62
2018-04-01T09:09:07.221Z,100072.22
2018-04-01T09:11:34.957Z,100070.70
2018-04-01T09:14:02.727Z,100075.66
2018-04-01T09:16:30.724Z,100073.59
2018-04-01T09:18:58.486Z,100079.16
2018-04-01T09:21:26.220Z,100074.42
2018-04-01T09:23:53.974Z,100081.92
2018-04-01T09:26:21.725Z,100089.16
2018-04-01T09:28:49.576Z,100090.91
2018-04-01T09:31:17.330Z,100090.61
2018-04-01T09:33:45.258Z,100089.05
2018-04-01T09:36:13.002Z,100089.02
2018-04-01T09:38:40.779Z,100099.02
2018-04-01T09:41:08.718Z,100100.14
2018-04-01T09:43:36.460Z,100102.88
2018-04-01T09:46:04.233Z,100111.25
2018-04-01T09:48:31.973Z,100107.40
2018-04-01T09:50:59.730Z,100107.32
2018-04-01T09:53:27.488Z,100107.69
2018-04-01T09:55:55.259Z,100116.56
2018-04-01T09:58:23.205Z,100119.28
2018-04-01T10:00:59.694Z,100116.22
2018-04-01T10:03:28.002Z,100122.91
2018-04-01T10:05:56.326Z,100128.23
2018-04-01T10:08:24.925Z,100123.38
2018-04-01T10:10:53.229Z,100131.02
2018-04-01T10:13:21.545Z,100132.97
2018-04-01T10:15:49.842Z,100139.73
2018-04-01T10:18:18.114Z,100145.30
2018-04-01T10:20:46.436Z,100149.66
2018-04-01T10:23:15.001Z,100153.73
2018-04-01T10:25:43.304Z,100161.89
2018-04-01T10:28:11.597Z,100166.37
2018-04-01T10:30:40.165Z,100177.91
2018-04-01T10:33:08.456Z,100184.55
2018-04-01T10:35:36.789Z,100189.75
2018-04-01T10:38:05.103Z,100196.69
2018-04-01T10:40:33.417Z,100197.69
2018-04-01T10:43:01.730Z,100209.52
2018-04-01T10:45:30.010Z,100207.22
2018-04-01T10:47:58.454Z,100208.92
2018-04-01T10:50:26.749Z,100214.66
2018-04-01T10:52:55.045Z,100208.77
2018-04-01T10:55:23.167Z,100211.41
2018-04-01T10:57:51.081Z,100223.03
2018-04-01T11:00:20.041Z,100220.78
2018-04-01T11:02:48.485Z,100221.36
2018-04-01T11:05:16.247Z,100220.80
2018-04-01T11:07:44.012Z,100212.88
2018-04-01T11:10:11.749Z,100222.12
2018-04-01T11:12:39.513Z,100224.13
2018-04-01T11:15:07.273Z,100224.30
2018-04-01T11:17:35.072Z,100232.38
2018-04-01T11:20:06.261Z,100233.03
2018-04-01T11:22:34.000Z,100233.97
2018-04-01T11:25:06.705Z,100237.25
2018-04-01T11:27:34.462Z,100237.84
2018-04-01T11:30:05.087Z,100243.39
2018-04-01T11:32:32.844Z,100242.12
2018-04-01T11:35:05.412Z,100248.39
2018-04-01T11:37:33.135Z,100241.19
2018-04-01T11:40:04.017Z,100258.95
2018-04-01T11:42:31.780Z,100264.11
2018-04-01T11:44:59.573Z,100268.97
2018-04-01T11:47:30.328Z,100274.34
2018-04-01T11:49:58.068Z,100274.89
2018-04-01T11:52:26.148Z,100293.47
2018-04-01T11:54:53.901Z,100292.34
2018-04-01T11:57:21.652Z,100284.55
2018-04-01T11:59:49.405Z,100295.77
2018-04-01T12:02:17.181Z,100293.47
2018-04-01T12:04:44.928Z,100292.81
2018-04-01T12:07:12.733Z,100299.30
2018-04-01T12:09:40.470Z,100295.36
2018-04-01T12:12:08.241Z,100303.09
2018-04-01T12:14:35.990Z,100308.08
2018-04-01T12:17:03.768Z,100313.03
2018-04-01T12:19:31.522Z,100313.19
2018-04-01T12:21:59.273Z,100314.40
2018-04-01T12:24:27.009Z,100310.17
2018-04-01T12:26:54.809Z,100320.70
2018-04-01T12:29:22.642Z,100319.23
2018-04-01T12:31:50.377Z,100327.95
2018-04-01T12:34:18.418Z,100322.09
2018-04-01T12:36:46.184Z,100327.54
2018-04-01T12:39:14.516Z,100327.16
2018-04-01T12:41:42.256Z,100329.70
2018-04-01T12:44:10.000Z,100335.84
2018-04-01T12:46:37.758Z,100336.92
2018-04-01T12:49:05.529Z,100345.26
2018-04-01T12:51:33.344Z,100350.94
2018-04-01T12:54:01.394Z,100350.55
2018-04-01T12:56:29.121Z,100351.70
2018-04-01T12:58:57.796Z,100350.77
2018-04-01T13:01:25.838Z,100351.72
2018-04-01T13:03:53.600Z,100347.84
2018-04-01T13:06:21.351Z,100355.51
2018-04-01T13:08:49.341Z,100352.19
2018-04-01T13:11:17.102Z,100349.37
2018-04-01T13:13:44.880Z,100349.16
2018-04-01T13:16:12.824Z,100354.23
2018-04-01T13:18:40.589Z,100349.37
2018-04-01T13:21:08.524Z,100351.47
2018-04-01T13:23:36.326Z,100352.80
2018-04-01T13:26:04.081Z,100350.80
2018-04-01T13:28:31.820Z,100344.40
2018-04-01T13:30:59.708Z,100354.38
2018-04-01T13:33:27.418Z,100351.03
2018-04-01T13:35:55.173Z,100366.36
2018-04-01T13:38:23.024Z,100362.53
2018-04-01T13:40:50.778Z,100371.28
2018-04-01T13:43:18.678Z,100367.48
2018-04-01T13:45:46.424Z,100370.78
2018-04-01T13:48:14.177Z,100365.73
2018-04-01T13:50:41.939Z,100368.06
2018-04-01T13:53:09.690Z,100364.00
2018-04-01T13:55:37.437Z,100368.70
2018-04-01T13:58:05.440Z,100369.25
2018-04-01T14:00:33.190Z,100368.55
2018-04-01T14:03:00.969Z,100366.34
2018-04-01T14:05:28.726Z,100366.53
2018-04-01T14:07:56.472Z,100373.17
2018-04-01T14:10:24.260Z,100369.06
2018-04-01T14:12:52.000Z,100368.05
2018-04-01T14:15:19.775Z,100370.98
2018-04-01T14:17:48.320Z,100369.78
2018-04-01T14:20:16.220Z,100378.27
2018-04-01T14:22:44.268Z,100381.52
2018-04-01T14:25:12.906Z,100383.36
2018-04-01T14:27:40.708Z,100383.88
2018-04-01T14:30:08.622Z,100388.31
2018-04-01T14:32:36.549Z,100390.69
2018-04-01T14:35:05.686Z,100387.16
2018-04-01T14:37:33.458Z,100393.40
2018-04-01T14:40:08.345Z,100389.41
2018-04-01T14:42:36.077Z,100398.78
2018-04-01T14:45:07.153Z,100398.00
2018-04-01T14:47:34.949Z,100399.06
2018-04-01T14:50:05.423Z,100409.98
2018-04-01T14:52:33.172Z,100410.73
2018-04-01T14:57:33.271Z,100412.52
2018-04-01T15:02:33.393Z,100401.45
2018-04-01T15:05:04.272Z,100409.19
2018-04-01T15:07:32.067Z,100408.81
2018-04-01T15:09:59.816Z,100409.87
2018-04-01T15:12:30.886Z,100402.84
2018-04-01T15:14:58.656Z,100403.14
2018-04-01T15:17:26.664Z,100396.89
2018-04-01T15:19:54.431Z,100398.45
2018-04-01T15:22:22.171Z,100400.56
2018-04-01T15:24:49.939Z,100402.59
2018-04-01T15:27:17.675Z,100407.88
2018-04-01T15:29:45.456Z,100424.48
2018-04-01T15:32:13.202Z,100434.76
2018-04-01T15:34:40.965Z,100429.22
2018-04-01T15:37:09.788Z,100430.66
2018-04-01T15:39:37.585Z,100444.23
2018-04-01T15:42:05.733Z,100443.44
2018-04-01T15:44:33.518Z,100446.36
2018-04-01T15:47:01.263Z,100442.05
2018-04-01T15:49:29.012Z,100446.64
2018-04-01T15:51:56.762Z,100456.89
2018-04-01T15:54:24.585Z,100459.08
2018-04-01T15:56:52.360Z,100460.87
2018-04-01T15:59:20.097Z,100468.02
2018-04-01T16:01:47.860Z,100478.80
2018-04-01T16:04:15.982Z,100475.06
2018-04-01T16:06:43.829Z,100481.84
2018-04-01T16:09:11.576Z,100483.92
2018-04-01T16:11:39.370Z,100492.95
2018-04-01T16:14:07.113Z,100494.04
2018-04-01T16:16:35.037Z,100506.58
2018-04-01T16:19:02.886Z,100507.06
2018-04-01T16:21:30.649Z,100510.29
2018-04-01T16:23:58.419Z,100512.16
2018-04-01T16:26:26.165Z,100514.69
2018-04-01T16:28:53.937Z,100516.45
2018-04-01T16:31:21.708Z,100520.47
2018-04-01T16:33:49.971Z,100524.61
2018-04-01T16:36:17.735Z,100533.41
2018-04-01T16:38:45.903Z,100530.06
2018-04-01T16:41:13.646Z,100536.23
2018-04-01T16:43:41.395Z,100540.54
2018-04-01T16:46:09.201Z,100544.52
2018-04-01T16:48:37.014Z,100538.37
2018-04-01T16:51:04.753Z,100543.34
2018-04-01T16:53:33.188Z,100544.26
2018-04-01T16:56:01.221Z,100549.52
2018-04-01T16:58:29.006Z,100543.62
2018-04-01T17:00:56.762Z,100548.75
2018-04-01T17:03:24.681Z,100551.52
2018-04-01T17:05:52.445Z,100560.07
2018-04-01T17:08:20.201Z,100565.22
2018-04-01T17:10:48.584Z,100563.56
2018-04-01T17:13:16.388Z,100574.78
2018-04-01T17:15:44.487Z,100580.63
2018-04-01T17:18:12.251Z,100581.54
2018-04-01T17:20:39.993Z,100589.02
2018-04-01T17:23:08.088Z,100589.89
2018-04-01T17:25:36.473Z,100592.69
2018-04-01T17:28:04.240Z,100597.18
2018-04-01T17:30:31.996Z,100595.03
2018-04-01T17:32:59.768Z,100596.47
2018-04-01T17:35:27.520Z,100597.06
2018-04-01T17:37:55.886Z,100599.85
2018-04-01T17:40:23.741Z,100606.94
2018-04-01T17:42:51.493Z,100602.09
2018-04-01T17:45:19.248Z,100603.06
2018-04-01T17:47:46.987Z,100600.94
2018-04-01T17:50:14.744Z,100606.06
2018-04-01T17:52:42.506Z,100611.66
2018-04-01T17:55:10.271Z,100616.37
2018-04-01T17:57:38.039Z,100617.91
2018-04-01T18:00:05.823Z,100611.73
2018-04-01T18:02:33.567Z,100622.79
2018-04-01T18:05:04.912Z,100625.70
2018-04-01T18:07:32.659Z,100624.58
2018-04-01T18:10:00.475Z,100633.52
2018-04-01T18:12:31.638Z,100634.98
2018-04-01T18:14:59.412Z,100636.81
2018-04-01T18:17:27.176Z,100638.52
2018-04-01T18:19:54.942Z,100647.89
2018-04-01T18:22:22.992Z,100645.94
2018-04-01T18:24:50.737Z,100656.89
2018-04-01T18:27:18.562Z,100651.44
2018-04-01T18:29:46.335Z,100662.28
2018-04-01T18:32:14.100Z,100662.83
2018-04-01T18:34:41.870Z,100665.82
2018-04-01T18:37:09.621Z,100669.50
2018-04-01T18:39:37.399Z,100658.94
2018-04-01T18:42:05.256Z,100672.92
2018-04-01T18:44:33.024Z,100678.67
2018-04-01T18:47:01.173Z,100676.19
2018-04-01T18:49:28.966Z,100682.09
2018-04-01T18:51:56.737Z,100680.14
2018-04-01T18:54:24.494Z,100685.53
2018-04-01T18:56:52.265Z,100688.59
2018-04-01T18:59:20.021Z,100692.11
2018-04-01T19:01:47.862Z,100697.47
2018-04-01T19:04:15.659Z,100699.86
2018-04-01T19:06:43.648Z,100699.66
2018-04-01T19:09:11.430Z,100709.89
2018-04-01T19:11:39.246Z,100711.61
2018-04-01T19:14:07.028Z,100714.38
2018-04-01T19:19:32.660Z,100716.59
2018-04-01T19:22:00.964Z,100715.84
2018-04-01T19:24:29.274Z,100719.88
2018-04-01T19:26:57.550Z,100723.66
2018-04-01T19:29:25.852Z,100720.95
2018-04-01T19:31:54.170Z,100720.52
2018-04-01T19:34:22.826Z,100722.86
2018-04-01T19:36:51.130Z,100718.80
2018-04-01T19:39:19.459Z,100723.98
2018-04-01T19:41:47.741Z,100717.20
2018-04-01T19:44:16.040Z,100725.68
2018-04-01T19:46:44.324Z,100721.14
2018-04-01T19:49:12.614Z,100725.75
2018-04-01T19:51:40.889Z,100729.67
2018-04-01T19:54:09.192Z,100732.30
2018-04-01T19:56:38.219Z,100738.89
2018-04-01T19:59:06.722Z,100730.09
2018-04-01T20:01:34.988Z,100737.76
2018-04-01T20:04:03.317Z,100734.42
2018-04-01T20:06:31.624Z,100733.72
2018-04-01T20:08:59.905Z,100734.50
2018-04-01T20:11:28.253Z,100737.30
2018-04-01T20:13:56.817Z,100739.55
2018-04-01T20:16:25.209Z,100744.36
2018-04-01T20:18:53.517Z,100749.30
2018-04-01T20:21:21.855Z,100748.58
2018-04-01T20:23:50.188Z,100749.37
2018-04-01T20:26:18.486Z,100742.13
2018-04-01T20:28:46.820Z,100745.13
2018-04-01T20:31:15.098Z,100743.45
2018-04-01T20:33:43.385Z,100751.84
2018-04-01T20:36:12.381Z,100749.87
2018-04-01T20:38:41.355Z,100747.02
2018-04-01T20:41:09.700Z,100747.34
2018-04-01T20:43:38.007Z,100752.35
2018-04-01T20:46:06.329Z,100748.05
2018-04-01T20:48:34.624Z,100759.03
2018-04-01T20:51:03.150Z,100760.10
2018-04-01T20:53:31.545Z,100754.46
2018-04-01T20:55:59.856Z,100756.92
2018-04-01T20:58:28.149Z,100750.97
2018-04-01T21:00:56.440Z,100755.08
2018-04-01T21:03:24.721Z,100756.13
2018-04-01T21:05:53.062Z,100759.94
2018-04-01T21:08:21.349Z,100757.87
2018-04-01T21:10:49.682Z,100757.72
2018-04-01T21:13:17.987Z,100755.69
2018-04-01T21:15:46.280Z,100763.75
2018-04-01T21:18:14.585Z,100759.11
2018-04-01T21:20:42.868Z,100758.23
2018-04-01T21:23:11.207Z,100767.84
2018-04-01T21:25:39.498Z,100769.82
2018-04-01T21:28:07.855Z,100768.14
2018-04-01T21:30:36.155Z,100770.73
2018-04-01T21:33:04.632Z,100763.27
2018-04-01T21:35:32.906Z,100757.70
2018-04-01T21:38:01.248Z,100765.38
2018-04-01T21:40:29.819Z,100765.28
2018-04-01T21:42:58.108Z,100770.62
2018-04-01T21:45:26.386Z,100770.61
2018-04-01T21:47:55.061Z,100773.91
2018-04-01T21:50:23.331Z,100772.50
2018-04-01T21:52:51.705Z,100769.31
2018-04-01T21:55:19.985Z,100768.23
2018-04-01T21:57:48.303Z,100763.96
2018-04-01T22:00:16.602Z,100763.22
2018-04-01T22:02:45.042Z,100759.81
2018-04-01T22:05:14.159Z,100772.03
2018-04-01T22:07:42.615Z,100758.42
2018-04-01T22:10:11.167Z,100758.75
2018-04-01T22:12:39.648Z,100756.61
2018-04-01T22:15:07.944Z,100754.52
2018-04-01T22:17:36.235Z,100750.66
2018-04-01T22:20:06.307Z,100753.34
2018-04-01T22:22:46.370Z,100752.63
2018-04-01T22:25:14.759Z,100749.06
2018-04-01T22:27:43.033Z,100745.45
2018-04-01T22:30:11.339Z,100745.17
2018-04-01T22:32:39.675Z,100752.48
2018-04-01T22:35:07.982Z,100754.80
2018-04-01T22:37:36.295Z,100754.52
2018-04-01T22:40:06.438Z,100755.61
2018-04-01T22:42:34.733Z,100755.11
2018-04-01T22:45:07.569Z,100758.56
2018-04-01T22:47:35.871Z,100756.56
2018-04-01T22:50:06.201Z,100758.31
2018-04-01T22:52:34.776Z,100751.70
2018-04-01T22:55:08.770Z,100757.25
2018-04-01T22:57:37.105Z,100746.55
2018-04-01T23:00:08.426Z,100750.80
2018-04-01T23:02:36.743Z,100742.50
2018-04-01T23:05:06.900Z,100736.64
2018-04-01T23:07:35.206Z,100742.20
2018-04-01T23:10:07.304Z,100736.05
2018-04-01T23:12:35.782Z,100728.39
2018-04-01T23:15:07.305Z,100682.33
2018-04-01T23:17:35.596Z,100742.36
2018-04-01T23:20:06.265Z,100740.60
2018-04-01T23:22:34.573Z,100744.61
2018-04-01T23:25:06.609Z,100738.75
2018-04-01T23:27:34.924Z,100727.78
2018-04-01T23:30:06.351Z,100740.17
2018-04-01T23:32:34.916Z,100738.14
2018-04-01T23:35:06.617Z,100736.03
2018-04-01T23:37:34.945Z,100736.48
2018-04-01T23:40:07.048Z,100732.25
2018-04-01T23:42:35.350Z,100732.84
2018-04-01T23:45:06.717Z,100734.30
2018-04-01T23:47:35.246Z,100729.11
2018-04-01T23:50:06.969Z,100727.59
2018-04-01T23:52:35.303Z,100723.63
2018-04-01T23:55:07.228Z,100720.66
2018-04-01T23:57:35.538Z,100719.58
